createdAt,value
2023-11-15T00:02:25.253Z,11.05
2023-11-15T00:05:29.517Z,11.07
2023-11-15T00:08:34.056Z,11.09
2023-11-15T00:11:38.329Z,11.09
2023-11-15T00:14:42.898Z,11.07
2023-11-15T00:17:47.167Z,11.05
2023-11-15T00:20:52.878Z,11.03
2023-11-15T00:23:57.159Z,11.02
2023-11-15T00:27:02.106Z,11.04
2023-11-15T00:30:07.344Z,11.03
2023-11-15T00:33:12.694Z,11.02
2023-11-15T00:36:20.904Z,11.00
2023-11-15T00:39:25.278Z,10.97
2023-11-15T00:42:29.326Z,10.93
2023-11-15T00:45:33.481Z,10.92
2023-11-15T00:48:37.605Z,10.93
2023-11-15T00:51:41.766Z,10.96
2023-11-15T00:54:45.821Z,10.97
2023-11-15T00:57:50.852Z,10.97
2023-11-15T01:00:56.384Z,10.96
2023-11-15T01:04:00.712Z,10.93
2023-11-15T01:07:05.750Z,10.90
2023-11-15T01:10:11.046Z,10.86
2023-11-15T01:13:15.382Z,10.82
2023-11-15T01:16:19.520Z,10.80
2023-11-15T01:19:23.638Z,10.77
2023-11-15T01:22:27.843Z,10.74
2023-11-15T01:25:32.916Z,10.70
2023-11-15T01:28:37.123Z,10.66
2023-11-15T01:31:41.225Z,10.63
2023-11-15T01:34:45.351Z,10.60
2023-11-15T01:37:53.025Z,10.60
2023-11-15T01:40:57.769Z,10.61
2023-11-15T01:44:01.819Z,10.64
2023-11-15T01:47:06.758Z,10.66
2023-11-15T01:50:14.571Z,10.69
2023-11-15T01:53:19.944Z,10.70
2023-11-15T01:56:24.181Z,10.68
2023-11-15T01:59:29.414Z,10.65
2023-11-15T02:02:33.902Z,10.61
2023-11-15T02:05:38.425Z,10.59
2023-11-15T02:08:42.728Z,10.58
2023-11-15T02:11:48.073Z,10.57
2023-11-15T02:14:52.965Z,10.56
2023-11-15T02:17:57.204Z,10.54
2023-11-15T02:21:01.365Z,10.54
2023-11-15T02:24:06.588Z,10.50
2023-11-15T02:27:10.647Z,10.48
2023-11-15T02:30:16.140Z,10.47
2023-11-15T02:33:20.959Z,10.48
2023-11-15T02:36:25.199Z,10.51
2023-11-15T02:39:29.286Z,10.53
2023-11-15T02:42:34.384Z,10.56
2023-11-15T02:45:38.818Z,10.54
2023-11-15T02:48:43.230Z,10.53
2023-11-15T02:51:50.354Z,10.49
2023-11-15T02:54:55.662Z,10.48
2023-11-15T02:58:01.948Z,10.48
2023-11-15T03:01:07.958Z,10.49
2023-11-15T03:04:12.294Z,10.51
2023-11-15T03:07:16.440Z,10.52
2023-11-15T03:10:20.764Z,10.51
2023-11-15T03:13:25.461Z,10.50
2023-11-15T03:16:29.904Z,10.47
2023-11-15T03:19:34.383Z,10.45
2023-11-15T03:22:38.610Z,10.40
2023-11-15T03:25:43.227Z,10.39
2023-11-15T03:28:48.771Z,10.38
2023-11-15T03:31:52.884Z,10.39
2023-11-15T03:34:57.008Z,10.41
2023-11-15T03:38:01.189Z,10.40
2023-11-15T03:41:06.110Z,10.40
2023-11-15T03:44:11.319Z,10.39
2023-11-15T03:47:15.452Z,10.39
2023-11-15T03:50:19.745Z,10.39
2023-11-15T03:53:24.231Z,10.41
2023-11-15T03:56:28.337Z,10.45
2023-11-15T03:59:32.483Z,10.47
2023-11-15T04:02:37.142Z,10.51
2023-11-15T04:05:41.493Z,10.53
2023-11-15T04:08:45.845Z,10.55
2023-11-15T04:11:50.642Z,10.55
2023-11-15T04:14:54.945Z,10.56
2023-11-15T04:17:59.247Z,10.57
2023-11-15T04:21:05.355Z,10.59
2023-11-15T04:24:10.286Z,10.61
2023-11-15T04:27:14.688Z,10.62
2023-11-15T04:30:18.788Z,10.63
2023-11-15T04:33:22.885Z,10.61
2023-11-15T04:36:27.132Z,10.59
2023-11-15T04:39:31.670Z,10.56
2023-11-15T04:42:36.142Z,10.54
2023-11-15T04:45:40.315Z,10.56
2023-11-15T04:48:44.874Z,10.58
2023-11-15T04:51:49.242Z,10.58
2023-11-15T04:54:55.751Z,10.56
2023-11-15T04:57:59.964Z,10.53
2023-11-15T05:01:05.064Z,10.50
2023-11-15T05:04:09.419Z,10.49
2023-11-15T05:07:13.650Z,10.48
2023-11-15T05:10:19.540Z,10.48
2023-11-15T05:13:23.725Z,10.49
2023-11-15T05:16:29.334Z,10.48
2023-11-15T05:19:35.442Z,10.46
2023-11-15T05:22:39.646Z,10.42
2023-11-15T05:25:43.716Z,10.39
2023-11-15T05:28:47.871Z,10.40
2023-11-15T05:31:52.139Z,10.42
2023-11-15T05:34:56.404Z,10.43
2023-11-15T05:38:00.561Z,10.45
2023-11-15T05:41:06.604Z,10.46
2023-11-15T05:44:11.269Z,10.45
2023-11-15T05:47:16.847Z,10.46
2023-11-15T05:50:21.017Z,10.46
2023-11-15T05:53:25.218Z,10.46
2023-11-15T05:56:29.466Z,10.45
2023-11-15T05:59:33.572Z,10.43
2023-11-15T06:02:37.682Z,10.42
2023-11-15T06:05:43.890Z,10.41
2023-11-15T06:08:48.647Z,10.42
2023-11-15T06:11:53.078Z,10.44
2023-11-15T06:14:57.203Z,10.45
2023-11-15T06:18:01.496Z,10.46
2023-11-15T06:21:06.952Z,10.47
2023-11-15T06:24:11.610Z,10.47
2023-11-15T06:27:15.603Z,10.44
2023-11-15T06:30:20.187Z,10.45
2023-11-15T06:33:27.023Z,10.46
2023-11-15T06:36:36.174Z,10.49
2023-11-15T06:39:43.930Z,10.50
2023-11-15T06:42:47.990Z,10.51
2023-11-15T06:45:52.050Z,10.49
2023-11-15T06:48:56.182Z,10.48
2023-11-15T06:52:00.278Z,10.49
2023-11-15T06:55:07.627Z,10.49
2023-11-15T06:58:18.304Z,10.51
2023-11-15T07:01:23.264Z,10.51
2023-11-15T07:04:28.127Z,10.52
2023-11-15T07:07:33.028Z,10.53
2023-11-15T07:10:37.137Z,10.54
2023-11-15T07:13:41.317Z,10.55
2023-11-15T07:16:49.542Z,10.61
2023-11-15T07:19:54.067Z,10.63
2023-11-15T07:22:58.504Z,10.65
2023-11-15T07:26:02.691Z,10.65
2023-11-15T07:29:11.363Z,10.64
2023-11-15T07:32:15.485Z,10.64
2023-11-15T07:35:20.602Z,10.66
2023-11-15T07:38:25.906Z,10.68
2023-11-15T07:41:30.256Z,10.71
2023-11-15T07:44:34.498Z,10.73
2023-11-15T07:47:39.980Z,10.74
2023-11-15T07:50:47.352Z,10.74
2023-11-15T07:53:51.525Z,10.77
2023-11-15T07:56:57.416Z,10.80
2023-11-15T08:00:02.461Z,10.80
2023-11-15T08:03:17.429Z,10.81
2023-11-15T08:06:22.663Z,10.82
2023-11-15T08:09:28.231Z,10.82
2023-11-15T08:12:37.371Z,10.82
2023-11-15T08:15:43.506Z,10.83
2023-11-15T08:18:49.053Z,10.83
2023-11-15T08:21:53.545Z,10.81
2023-11-15T08:24:57.617Z,10.81
2023-11-15T08:28:03.105Z,10.80
2023-11-15T08:31:07.444Z,10.82
2023-11-15T08:34:12.656Z,10.83
2023-11-15T08:37:16.729Z,10.84
2023-11-15T08:40:28.928Z,10.86
2023-11-15T08:43:37.311Z,10.87
2023-11-15T08:46:46.477Z,10.84
2023-11-15T08:49:51.903Z,10.81
2023-11-15T08:52:56.065Z,10.80
2023-11-15T08:56:00.207Z,10.80
2023-11-15T08:59:05.237Z,10.81
2023-11-15T09:02:12.253Z,10.81
2023-11-15T09:05:17.505Z,10.82
2023-11-15T09:08:23.459Z,10.85
2023-11-15T09:11:30.139Z,10.89
2023-11-15T09:14:37.229Z,10.91
2023-11-15T09:17:49.861Z,10.95
2023-11-15T09:20:54.288Z,11.00
2023-11-15T09:23:58.946Z,11.02
2023-11-15T09:27:03.232Z,11.02
2023-11-15T09:30:08.517Z,11.01
2023-11-15T09:33:15.362Z,11.02
2023-11-15T09:36:20.092Z,11.07
2023-11-15T09:39:24.468Z,11.12
2023-11-15T09:42:29.683Z,11.15
2023-11-15T09:45:39.281Z,11.19
2023-11-15T09:48:53.421Z,11.22
2023-11-15T09:52:03.991Z,11.22
2023-11-15T09:55:09.486Z,11.23
2023-11-15T09:58:14.668Z,11.28
2023-11-15T10:01:19.017Z,11.31
2023-11-15T10:04:28.959Z,11.35
2023-11-15T10:07:33.924Z,11.38
2023-11-15T10:10:47.607Z,11.41
2023-11-15T10:14:08.825Z,11.38
2023-11-15T10:17:12.943Z,11.33
2023-11-15T10:20:19.883Z,11.32
2023-11-15T10:23:29.031Z,11.32
2023-11-15T10:26:40.171Z,11.31
2023-11-15T10:29:47.431Z,11.28
2023-11-15T10:32:53.353Z,11.27
2023-11-15T10:35:57.674Z,11.24
2023-11-15T10:39:06.486Z,11.19
2023-11-15T10:42:13.722Z,11.19
2023-11-15T10:45:18.312Z,11.20
2023-11-15T10:48:26.773Z,11.24
2023-11-15T10:51:42.654Z,11.26
2023-11-15T10:54:47.277Z,11.25
2023-11-15T10:57:52.690Z,11.25
2023-11-15T11:00:57.519Z,11.22
2023-11-15T11:04:07.129Z,11.16
2023-11-15T11:07:34.348Z,11.12
2023-11-15T11:10:54.628Z,11.09
2023-11-15T11:14:28.388Z,11.07
2023-11-15T11:17:34.699Z,11.05
2023-11-15T11:20:42.184Z,11.04
2023-11-15T11:24:12.432Z,11.04
2023-11-15T11:27:16.863Z,11.03
2023-11-15T11:30:22.363Z,11.03
2023-11-15T11:33:27.090Z,11.01
2023-11-15T11:36:51.290Z,11.00
2023-11-15T11:39:57.348Z,10.97
2023-11-15T11:43:17.096Z,10.95
2023-11-15T11:46:22.088Z,10.90
2023-11-15T11:49:26.338Z,10.86
2023-11-15T11:52:30.537Z,10.83
2023-11-15T11:55:34.990Z,10.83
2023-11-15T11:58:40.616Z,10.85
2023-11-15T12:01:49.545Z,10.88
2023-11-15T12:04:53.727Z,10.93
2023-11-15T12:07:58.047Z,10.99
2023-11-15T12:11:02.570Z,11.07
2023-11-15T12:14:13.806Z,11.12
2023-11-15T12:17:19.776Z,11.13
2023-11-15T12:20:31.755Z,11.14
2023-11-15T12:23:41.858Z,11.16
2023-11-15T12:26:49.322Z,11.20
2023-11-15T12:29:54.293Z,11.25
2023-11-15T12:33:01.772Z,11.30
2023-11-15T12:36:08.365Z,11.31
2023-11-15T12:39:17.765Z,11.27
2023-11-15T12:42:29.114Z,11.25
2023-11-15T12:45:36.250Z,11.24
2023-11-15T12:48:46.602Z,11.23
2023-11-15T12:51:53.177Z,11.24
2023-11-15T12:54:57.990Z,11.25
2023-11-15T12:58:02.660Z,11.25
2023-11-15T13:01:09.323Z,11.24
2023-11-15T13:04:15.604Z,11.21
2023-11-15T13:07:19.873Z,11.16
2023-11-15T13:10:23.966Z,11.13
2023-11-15T13:13:28.624Z,11.13
2023-11-15T13:16:34.163Z,11.13
2023-11-15T13:19:38.363Z,11.09
2023-11-15T13:22:43.326Z,11.03
2023-11-15T13:25:48.003Z,10.97
2023-11-15T13:28:51.998Z,10.86
2023-11-15T13:31:56.613Z,10.74
2023-11-15T13:35:08.250Z,10.66
2023-11-15T13:38:13.718Z,10.61
2023-11-15T13:41:23.298Z,10.57
2023-11-15T13:44:27.897Z,10.54
2023-11-15T13:47:32.550Z,10.49
2023-11-15T13:50:37.284Z,10.37
2023-11-15T13:53:42.105Z,10.21
2023-11-15T13:56:47.064Z,10.05
2023-11-15T13:59:51.266Z,9.87
2023-11-15T14:02:55.762Z,9.68
2023-11-15T14:06:03.301Z,9.55
2023-11-15T14:09:10.416Z,9.45
2023-11-15T14:12:14.640Z,9.37
2023-11-15T14:15:20.323Z,9.32
2023-11-15T14:18:24.921Z,9.29
2023-11-15T14:21:31.467Z,9.22
2023-11-15T14:24:36.229Z,9.09
2023-11-15T14:27:40.741Z,8.93
2023-11-15T14:30:45.302Z,8.79
2023-11-15T14:33:49.754Z,8.64
2023-11-15T14:36:56.125Z,8.50
2023-11-15T14:40:00.803Z,8.37
2023-11-15T14:43:06.300Z,8.23
2023-11-15T14:46:10.452Z,8.11
2023-11-15T14:49:14.725Z,8.03
2023-11-15T14:52:22.893Z,7.95
2023-11-15T14:55:32.960Z,7.87
2023-11-15T14:58:37.338Z,7.76
2023-11-15T15:01:41.613Z,7.64
2023-11-15T15:04:48.281Z,7.55
2023-11-15T15:07:54.219Z,7.50
2023-11-15T15:10:58.563Z,7.47
2023-11-15T15:14:02.643Z,7.44
2023-11-15T15:17:14.611Z,7.36
2023-11-15T15:20:26.185Z,7.35
2023-11-15T15:23:30.454Z,7.36
2023-11-15T15:26:35.447Z,7.36
2023-11-15T15:29:40.791Z,7.38
2023-11-15T15:32:45.928Z,7.37
2023-11-15T15:35:51.109Z,7.33
2023-11-15T15:38:55.468Z,7.31
2023-11-15T15:42:00.387Z,7.27
2023-11-15T15:45:07.558Z,7.26
2023-11-15T15:48:13.900Z,7.26
2023-11-15T15:51:18.352Z,7.23
2023-11-15T15:54:22.944Z,7.20
2023-11-15T15:57:27.154Z,7.16
2023-11-15T16:00:31.396Z,7.13
2023-11-15T16:03:36.058Z,7.07
2023-11-15T16:06:40.193Z,6.99
2023-11-15T16:09:44.267Z,6.93
2023-11-15T16:12:51.140Z,6.86
2023-11-15T16:15:55.580Z,6.79
2023-11-15T16:18:59.793Z,6.73
2023-11-15T16:22:04.212Z,6.66
2023-11-15T16:25:09.669Z,6.57
2023-11-15T16:28:14.293Z,6.49
2023-11-15T16:31:18.485Z,6.45
2023-11-15T16:34:24.241Z,6.38
2023-11-15T16:37:29.815Z,6.30
2023-11-15T16:40:39.334Z,6.28
2023-11-15T16:43:43.428Z,6.25
2023-11-15T16:46:48.894Z,6.27
2023-11-15T16:49:55.839Z,6.30
2023-11-15T16:53:01.520Z,6.31
2023-11-15T16:56:07.184Z,6.31
2023-11-15T16:59:13.212Z,6.28
2023-11-15T17:02:17.426Z,6.28
2023-11-15T17:05:21.613Z,6.32
2023-11-15T17:08:28.475Z,6.32
2023-11-15T17:11:33.173Z,6.33
2023-11-15T17:14:37.214Z,6.32
2023-11-15T17:17:41.273Z,6.30
2023-11-15T17:20:46.052Z,6.26
2023-11-15T17:23:50.198Z,6.21
2023-11-15T17:26:54.664Z,6.18
2023-11-15T17:29:59.689Z,6.18
2023-11-15T17:33:04.219Z,6.19
2023-11-15T17:36:10.062Z,6.21
2023-11-15T17:39:16.087Z,6.24
2023-11-15T17:42:20.678Z,6.25
2023-11-15T17:45:24.808Z,6.23
2023-11-15T17:48:29.811Z,6.19
2023-11-15T17:51:34.017Z,6.18
2023-11-15T17:54:38.143Z,6.14
2023-11-15T17:57:45.083Z,6.10
2023-11-15T18:00:49.878Z,6.05
2023-11-15T18:03:53.963Z,6.02
2023-11-15T18:06:58.365Z,5.98
2023-11-15T18:10:02.910Z,5.95
2023-11-15T18:13:07.187Z,5.93
2023-11-15T18:16:12.244Z,5.92
2023-11-15T18:19:21.990Z,5.89
2023-11-15T18:22:26.392Z,5.82
2023-11-15T18:25:30.723Z,5.79
2023-11-15T18:28:35.040Z,5.77
2023-11-15T18:31:39.267Z,5.75
2023-11-15T18:34:43.629Z,5.74
2023-11-15T18:37:48.004Z,5.73
2023-11-15T18:40:52.328Z,5.74
2023-11-15T18:43:58.032Z,5.74
2023-11-15T18:47:02.345Z,5.71
2023-11-15T18:50:08.454Z,5.68
2023-11-15T18:53:14.720Z,5.65
2023-11-15T18:56:18.890Z,5.59
2023-11-15T18:59:23.469Z,5.57
2023-11-15T19:02:27.637Z,5.57
2023-11-15T19:05:32.868Z,5.56
2023-11-15T19:08:37.443Z,5.57
2023-11-15T19:11:41.587Z,5.58
2023-11-15T19:14:45.685Z,5.61
2023-11-15T19:17:50.620Z,5.65
2023-11-15T19:20:55.237Z,5.69
2023-11-15T19:24:01.009Z,5.71
2023-11-15T19:27:05.807Z,5.73
2023-11-15T19:30:11.026Z,5.71
2023-11-15T19:33:15.532Z,5.69
2023-11-15T19:36:19.693Z,5.67
2023-11-15T19:39:23.980Z,5.69
2023-11-15T19:42:29.194Z,5.72
2023-11-15T19:45:34.425Z,5.77
2023-11-15T19:48:38.857Z,5.77
2023-11-15T19:51:45.045Z,5.77
2023-11-15T19:54:51.287Z,5.74
2023-11-15T19:57:55.439Z,5.73
2023-11-15T20:01:03.691Z,5.71
2023-11-15T20:04:07.987Z,5.71
2023-11-15T20:07:14.812Z,5.69
2023-11-15T20:10:20.181Z,5.62
2023-11-15T20:13:24.627Z,5.54
2023-11-15T20:16:29.573Z,5.49
2023-11-15T20:19:33.797Z,5.42
2023-11-15T20:22:45.616Z,5.40
2023-11-15T20:25:55.580Z,5.39
2023-11-15T20:28:59.680Z,5.41
2023-11-15T20:32:04.072Z,5.41
2023-11-15T20:35:08.738Z,5.40
2023-11-15T20:38:12.815Z,5.37
2023-11-15T20:41:17.479Z,5.32
2023-11-15T20:44:21.706Z,5.24
2023-11-15T20:47:25.962Z,5.19
2023-11-15T20:50:30.850Z,5.15
2023-11-15T20:53:35.070Z,5.13
2023-11-15T20:56:40.109Z,5.14
2023-11-15T20:59:44.771Z,5.13
2023-11-15T21:02:48.909Z,5.12
2023-11-15T21:05:53.137Z,5.09
2023-11-15T21:08:57.610Z,5.08
2023-11-15T21:12:04.290Z,5.08
2023-11-15T21:15:11.105Z,5.05
2023-11-15T21:18:15.783Z,5.06
2023-11-15T21:21:20.093Z,5.10
2023-11-15T21:24:24.427Z,5.13
2023-11-15T21:27:29.157Z,5.20
2023-11-15T21:30:35.602Z,5.25
2023-11-15T21:33:40.112Z,5.28
2023-11-15T21:36:45.644Z,5.28
2023-11-15T21:39:50.126Z,5.26
2023-11-15T21:42:54.267Z,5.24
2023-11-15T21:45:58.588Z,5.25
2023-11-15T21:49:02.864Z,5.27
2023-11-15T21:52:07.922Z,5.27
2023-11-15T21:55:12.505Z,5.27
2023-11-15T21:58:18.153Z,5.26
2023-11-15T22:01:22.764Z,5.27
2023-11-15T22:04:26.779Z,5.25
2023-11-15T22:07:31.239Z,5.23
2023-11-15T22:10:35.315Z,5.19
2023-11-15T22:13:39.549Z,5.18
2023-11-15T22:16:43.637Z,5.17
2023-11-15T22:19:47.728Z,5.16
2023-11-15T22:22:52.050Z,5.13
2023-11-15T22:25:56.156Z,5.08
2023-11-15T22:29:00.297Z,5.05
2023-11-15T22:32:05.206Z,5.00
2023-11-15T22:35:11.164Z,4.96
2023-11-15T22:38:16.303Z,4.91
2023-11-15T22:41:20.567Z,4.89
2023-11-15T22:44:24.741Z,4.90
2023-11-15T22:47:28.849Z,4.93
2023-11-15T22:50:32.941Z,5.00
2023-11-15T22:53:37.047Z,5.05
2023-11-15T22:56:45.482Z,5.11
2023-11-15T22:59:52.356Z,5.16
2023-11-15T23:02:57.323Z,5.18
2023-11-15T23:06:01.733Z,5.19
2023-11-15T23:09:06.228Z,5.18
2023-11-15T23:12:10.361Z,5.19
2023-11-15T23:15:14.503Z,5.23
2023-11-15T23:18:19.593Z,5.26
2023-11-15T23:21:23.844Z,5.29
2023-11-15T23:24:29.524Z,5.30
2023-11-15T23:27:37.260Z,5.27
2023-11-15T23:30:42.589Z,5.28
2023-11-15T23:33:47.040Z,5.28
2023-11-15T23:36:53.236Z,5.29
2023-11-15T23:39:58.066Z,5.30
2023-11-15T23:43:02.546Z,5.28
2023-11-15T23:46:07.040Z,5.30
2023-11-15T23:49:11.121Z,5.32
2023-11-15T23:52:15.319Z,5.31
2023-11-15T23:55:23.913Z,5.32
2023-11-15T23:58:29.354Z,5.32
